ADDS METAR Data INFO
IDs: Format: Raw Decoded Include TAF

Data at: 0733 UTC 21 Jul 2018

PAIK 210656Z AUTO 08003KT 10SM FEW035 15/11 A3024 RMK AO2 SLP244 T01500111
PAIK 210556Z AUTO 10004KT 10SM FEW120 16/11 A3024 RMK AO2 SLP244 T01560111 10161 20144 56004
PAIK 210456Z AUTO 09005KT 10SM SCT055 BKN110 16/11 A3024 RMK AO2 SLP245 T01560106
PAIK 210356Z AUTO 00000KT 10SM OVC055 15/11 A3025 RMK AO2 SLP247 T01500106
PAIK 210256Z AUTO 00000KT 10SM FEW028 OVC055 15/11 A3025 RMK AO2 SLP249 T01500106 56001
PAIK 210248Z AUTO 00000KT 10SM SCT029 OVC055 15/11 A3026 RMK AO2
PAIK 210156Z AUTO 00000KT 10SM OVC023 14/11 A3025 RMK AO2 SLP249 T01440106
PAIK 210056Z AUTO 00000KT 10SM OVC023 14/10 A3026 RMK AO2 SLP250 T01440100
PAIK 202356Z AUTO 00000KT 10SM OVC025 14/11 A3026 RMK AO2 SLP250 60000 T01440106 10144 20111 58001
PAIK 202256Z AUTO 00000KT 10SM BKN027 OVC050 14/11 A3026 RMK AO2 SLP251 T01390106
PAIK 202254Z AUTO 16003KT 10SM BKN027 OVC050 14/11 A3026 RMK AO2
PAIK 202225Z AUTO 00000KT 10SM SCT027 SCT037 OVC050 14/11 A3026 RMK AO2
PAIK 202214Z AUTO 00000KT 10SM BKN027 BKN037 OVC055 13/11 A3026 RMK AO2
PAIK 202156Z AUTO 18003KT 10SM FEW021 BKN037 OVC055 13/11 A3026 RMK AO2 SLP251 T01330106
PAIK 202145Z AUTO 00000KT 10SM FEW021 BKN037 OVC055 13/11 A3026 RMK AO2
PAIK 202056Z AUTO 00000KT 10SM FEW008 SCT011 OVC019 12/11 A3026 RMK AO2 RAE24 SLP250 P0000 60000 T01220106 53002
PAIK 202045Z AUTO 26004KT 10SM SCT008 OVC015 12/11 A3026 RMK AO2 RAE24 P0000
PAIK 202025Z AUTO 00000KT 6SM BR SCT004 BKN012 OVC018 12/11 A3025 RMK AO2 RAE24 P0000
PAIK 202018Z AUTO 00000KT 3SM -RA BR SCT004 BKN009 OVC014 12/11 A3025 RMK AO2 CIG 007V010 P0000
PAIK 201956Z AUTO 18003KT 1 1/2SM -RA BR BKN008 OVC012 12/11 A3025 RMK AO2 RAB55 CIG 005V010 SLP248 P0000 T01170111
PAIK 201928Z AUTO 00000KT 2 1/2SM BR OVC008 12/11 A3025 RMK AO2 CIG 006V011
PAIK 201856Z AUTO 00000KT 10SM BKN012 OVC019 12/10 A3025 RMK AO2 SLP247 T01170100
PAIK 201852Z AUTO 00000KT 10SM BKN012 BKN019 OVC025 12/10 A3025 RMK AO2
PAIK 201756Z AUTO 08003KT 10SM FEW003 OVC023 11/10 A3025 RMK AO2 RAB13E26 SLP245 P0000 60000 T01110100 10111 20083 58001
PAIK 201727Z AUTO 06003KT 8SM FEW003 SCT007 OVC018 11/10 A3025 RMK AO2 RAB13E26 P0000
PAIK 201707Z AUTO 06003KT 2 1/2SM BR FEW003 OVC018 11/10 A3025 RMK AO2
PAIK 201656Z AUTO 00000KT 4SM BR FEW011 OVC018 11/10 A3025 RMK AO2 SLP247 T01060100
PAIK 201654Z AUTO 00000KT 4SM BR FEW011 OVC018 11/10 A3025 RMK AO2
PAIK 201645Z AUTO 00000KT 2 1/2SM BR OVC016 10/09 A3025 RMK AO2
PAIK 201556Z AUTO 00000KT 10SM OVC019 10/08 A3025 RMK AO2 SLP246 T01000083
PAIK 201356Z AUTO 02004KT 10SM OVC025 09/08 A3025 RMK AO2 SLP247 T00890078
PAIK 201256Z AUTO 00000KT 10SM OVC029 09/08 A3025 RMK AO2 SLP246 T00890078
PAIK 201246Z AUTO 00000KT 10SM OVC029 09/08 A3024 RMK AO2
PAIK 201156Z AUTO 22003KT 10SM OVC031 09/07 A3025 RMK AO2 SLP246 70007 T00890072 10133 20083 56002
PAIK 201056Z AUTO 19003KT 10SM OVC090 09/08 A3025 RMK AO2 SLP247 T00890078
PAIK 200956Z AUTO 18004KT 10SM CLR 09/07 A3025 RMK AO2 SLP247 T00890067
PAIK 200933Z AUTO 20004KT 10SM SCT027 BKN090 09/07 A3025 RMK AO2
PAIK 200856Z AUTO 00000KT 9SM BKN027 10/07 A3026 RMK AO2 SLP249 T01000067 401440078 53006
PAIK 200756Z AUTO 24003KT 10SM FEW033 11/07 A3025 RMK AO2 SLP246 T01110067
PAIK 200656Z AUTO 22004KT 10SM BKN035 13/06 A3024 RMK AO2 SLP243 T01280061
PAIK 200556Z AUTO 20004KT 10SM CLR 13/07 A3024 RMK AO2 SLP242 T01280067 10144 20117 52002
PAIK 200456Z AUTO 20005KT 10SM OVC033 13/07 A3023 RMK AO2 SLP241 T01280072
PAIK 200356Z AUTO 21008KT 10SM OVC031 13/07 A3023 RMK AO2 SLP241 T01330072
PAIK 200256Z AUTO 23007KT 10SM OVC031 14/07 A3023 RMK AO2 SLP240 T01390067 53005
PAIK 200243Z AUTO VRB04KT 10SM OVC031 13/07 A3023 RMK AO2
PAIK 200156Z AUTO 20007KT 10SM OVC029 13/07 A3022 RMK AO2 SLP238 T01280072
PAIK 200056Z AUTO 21004KT 10SM OVC027 12/07 A3022 RMK AO2 SLP236 T01220072
PAIK 200010Z AUTO 16004KT 10SM OVC027 12/07 A3022 RMK AO2
PAIK 192356Z AUTO 16004KT 10SM SCT022 OVC030 12/07 A3022 RMK AO2 SLP236 60005 T01220072 10122 20078 51009
PAIK 192256Z AUTO 14004KT 10SM OVC024 11/07 A3021 RMK AO2 SLP233 T01060072
PAIK 192211Z AUTO 19003KT 10SM SCT011 OVC022 10/07 A3021 RMK AO2
PAIK 192156Z AUTO 09003KT 10SM BKN011 OVC022 09/08 A3020 RMK AO2 SLP231 T00940078
PAIK 192136Z AUTO 00000KT 10SM OVC011 10/08 A3020 RMK AO2 CIG 009V013
PAIK 192106Z AUTO 00000KT 10SM OVC009 09/08 A3019 RMK AO2 CIG 008V012
PAIK 192056Z AUTO 00000KT 10SM BKN011 OVC014 09/07 A3019 RMK AO2 RAE32 CIG 008V012 SLP226 P0000 60005 T00890072 51015
PAIK 191956Z AUTO 00000KT 10SM -RA OVC009 08/07 A3018 RMK AO2 CIG 006V012 SLP223 P0004 T00830072